Terminal Aerodrome Forecast
Issued by NWS

Home | Current Version | Previous Version | Text Only | Print | Product List | Glossary On
Versions: 1 2 3 4 5 6 7 8 9 10 11 12 13 14 15 16 17 18 19 20 21 22 23 24 25 26 27 28 29 30 31 32 33 34 35
000
FTUS46 KEKA 271145
TAFCEC
TAF
KCEC 271145Z 2712/2812 00000KT P6SM OVC006
     FM271900 27008KT 6SM HZ BKN005
     FM272300 21006KT 6SM BR SCT010
     FM280300 17005KT 4SM BR BKN005
     FM280800 16003KT 1SM BR OVC003=

USA.gov is the U.S. government's official web portal to all federal, state and local government web resources and services.